createdAt,value
2023-04-29T00:00:34.222Z,8.00
2023-04-29T00:02:37.097Z,3.50
2023-04-29T00:04:39.146Z,7.00
2023-04-29T00:06:41.017Z,5.00
2023-04-29T00:08:42.555Z,4.00
2023-04-29T00:10:44.394Z,5.00
2023-04-29T00:12:45.984Z,5.50
2023-04-29T00:14:47.609Z,4.00
2023-04-29T00:16:50.593Z,5.50
2023-04-29T00:18:52.157Z,8.00
2023-04-29T00:20:53.914Z,5.75
2023-04-29T00:22:55.483Z,9.50
2023-04-29T00:24:57.102Z,7.75
2023-04-29T00:26:58.966Z,5.00
2023-04-29T00:29:00.536Z,4.00
2023-04-29T00:31:02.075Z,5.50
2023-04-29T00:33:05.127Z,6.00
2023-04-29T00:35:07.433Z,7.50
2023-04-29T00:37:08.978Z,6.25
2023-04-29T00:39:10.572Z,7.25
2023-04-29T00:41:12.145Z,8.00
2023-04-29T00:43:13.862Z,6.00
2023-04-29T00:45:15.548Z,5.75
2023-04-29T00:47:17.223Z,4.75
2023-04-29T00:49:21.425Z,5.00
2023-04-29T00:51:24.051Z,4.00
2023-04-29T00:53:25.733Z,6.75
2023-04-29T00:55:28.315Z,4.00
2023-04-29T00:57:30.455Z,8.00
2023-04-29T00:59:32.087Z,5.00
2023-04-29T01:01:33.996Z,5.00
2023-04-29T01:03:35.757Z,4.50
2023-04-29T01:05:38.880Z,4.00
2023-04-29T01:07:48.880Z,7.75
2023-04-29T01:10:00.632Z,8.75
2023-04-29T01:12:13.069Z,6.50
2023-04-29T01:14:15.087Z,7.00
2023-04-29T01:16:23.396Z,5.00
2023-04-29T01:18:28.122Z,8.25
2023-04-29T01:20:30.829Z,8.00
2023-04-29T01:22:33.783Z,8.00
2023-04-29T01:24:36.812Z,9.00
2023-04-29T01:26:38.858Z,7.50
2023-04-29T01:28:48.572Z,7.25
2023-04-29T01:30:56.718Z,8.00
2023-04-29T01:33:03.466Z,8.25
2023-04-29T01:35:16.190Z,5.75
2023-04-29T01:37:22.758Z,6.50
2023-04-29T01:39:33.064Z,8.75
2023-04-29T01:41:43.566Z,10.25
2023-04-29T01:43:50.121Z,8.00
2023-04-29T01:45:54.345Z,8.25
2023-04-29T01:47:57.480Z,9.75
2023-04-29T01:49:59.069Z,6.50
2023-04-29T01:52:00.627Z,9.75
2023-04-29T01:54:02.241Z,8.00
2023-04-29T01:56:04.343Z,3.25
2023-04-29T01:58:07.297Z,9.00
2023-04-29T02:00:09.402Z,4.50
2023-04-29T02:02:10.970Z,5.50
2023-04-29T02:04:12.661Z,8.00
2023-04-29T02:06:14.366Z,10.50
2023-04-29T02:08:16.243Z,9.25
2023-04-29T02:10:17.858Z,10.00
2023-04-29T02:12:19.426Z,9.00
2023-04-29T02:14:22.393Z,7.75
2023-04-29T02:16:24.533Z,12.75
2023-04-29T02:18:26.107Z,8.00
2023-04-29T02:20:27.672Z,10.50
2023-04-29T02:22:29.306Z,12.50
2023-04-29T02:24:30.862Z,10.00
2023-04-29T02:26:32.642Z,14.50
2023-04-29T02:28:34.212Z,11.50
2023-04-29T02:30:37.134Z,10.50
2023-04-29T02:32:38.924Z,10.50
2023-04-29T02:34:40.509Z,10.25
2023-04-29T02:36:42.180Z,9.00
2023-04-29T02:38:43.924Z,11.75
2023-04-29T02:40:46.744Z,9.00
2023-04-29T02:42:48.499Z,15.00
2023-04-29T02:44:50.025Z,10.50
2023-04-29T02:46:52.970Z,10.50
2023-04-29T02:48:54.454Z,15.50
2023-04-29T02:50:56.217Z,14.25
2023-04-29T02:52:57.838Z,11.50
2023-04-29T02:54:59.398Z,12.00
2023-04-29T02:57:01.057Z,10.00
2023-04-29T02:59:02.726Z,15.00
2023-04-29T03:01:04.398Z,15.00
2023-04-29T03:03:07.503Z,14.75
2023-04-29T03:05:09.712Z,16.75
2023-04-29T03:07:11.247Z,13.75
2023-04-29T03:09:12.753Z,18.50
2023-04-29T03:11:14.349Z,13.00
2023-04-29T03:13:16.209Z,15.50
2023-04-29T03:15:17.798Z,13.50
2023-04-29T03:17:19.373Z,11.50
2023-04-29T03:19:22.406Z,18.00
2023-04-29T03:21:24.140Z,15.75
2023-04-29T03:23:25.814Z,17.00
2023-04-29T03:25:27.367Z,19.25
2023-04-29T03:27:28.933Z,15.75
2023-04-29T03:29:30.745Z,16.75
2023-04-29T03:31:32.531Z,20.50
2023-04-29T03:33:34.207Z,18.25
2023-04-29T03:35:37.128Z,17.50
2023-04-29T03:37:39.202Z,15.25
2023-04-29T03:39:40.753Z,16.25
2023-04-29T03:41:42.855Z,15.50
2023-04-29T03:43:44.482Z,15.25
2023-04-29T03:45:46.134Z,19.75
2023-04-29T03:47:47.778Z,16.50
2023-04-29T03:49:49.769Z,20.25
2023-04-29T03:51:52.948Z,17.25
2023-04-29T03:53:55.628Z,5.50
2023-04-29T03:55:57.212Z,16.25
2023-04-29T03:57:58.749Z,18.25
2023-04-29T04:00:00.333Z,19.00
2023-04-29T04:02:02.902Z,18.00
2023-04-29T04:04:04.876Z,17.50
2023-04-29T04:06:06.566Z,17.75
2023-04-29T04:08:09.498Z,17.50
2023-04-29T04:10:11.239Z,18.00
2023-04-29T04:12:12.988Z,16.75
2023-04-29T04:14:15.187Z,23.50
2023-04-29T04:16:16.775Z,20.25
2023-04-29T04:18:18.433Z,24.25
2023-04-29T04:20:20.050Z,16.75
2023-04-29T04:22:21.684Z,24.00
2023-04-29T04:24:24.744Z,20.75
2023-04-29T04:26:26.286Z,18.00
2023-04-29T04:28:27.908Z,23.00
2023-04-29T04:30:29.425Z,19.25
2023-04-29T04:32:31.065Z,18.25
2023-04-29T04:34:32.615Z,18.50
2023-04-29T04:36:34.167Z,20.50
2023-04-29T04:38:35.823Z,22.25
2023-04-29T04:40:41.077Z,20.25
2023-04-29T04:42:42.644Z,20.75
2023-04-29T04:44:44.230Z,20.50
2023-04-29T04:46:45.984Z,28.75
2023-04-29T04:48:47.633Z,24.50
2023-04-29T04:50:49.200Z,23.25
2023-04-29T04:52:50.905Z,25.00
2023-04-29T04:54:52.456Z,24.50
2023-04-29T04:56:55.472Z,25.50
2023-04-29T04:58:57.022Z,26.50
2023-04-29T05:00:58.765Z,18.25
2023-04-29T05:03:00.945Z,19.25
2023-04-29T05:05:02.551Z,24.75
2023-04-29T05:07:04.154Z,26.00
2023-04-29T05:09:05.702Z,24.00
2023-04-29T05:11:07.530Z,23.75
2023-04-29T05:13:10.529Z,24.25
2023-04-29T05:15:12.256Z,26.33
2023-04-29T05:17:13.893Z,25.50
2023-04-29T05:19:15.676Z,29.00
2023-04-29T05:21:17.850Z,25.67
2023-04-29T05:23:19.520Z,20.67
2023-04-29T05:25:21.280Z,26.50
2023-04-29T05:27:22.922Z,18.67
2023-04-29T05:29:25.975Z,20.75
2023-04-29T05:31:27.910Z,27.00
2023-04-29T05:33:29.632Z,24.25
2023-04-29T05:35:31.289Z,25.00
2023-04-29T05:37:33.036Z,20.00
2023-04-29T05:39:34.652Z,22.67
2023-04-29T05:41:36.263Z,28.75
2023-04-29T05:43:37.805Z,29.00
2023-04-29T05:45:40.726Z,26.00
2023-04-29T05:47:42.347Z,26.50
2023-04-29T05:49:44.053Z,24.00
2023-04-29T05:51:45.640Z,19.25
2023-04-29T05:53:47.545Z,25.00
2023-04-29T05:55:51.074Z,27.25
2023-04-29T05:57:52.787Z,26.50
2023-04-29T05:59:54.427Z,22.25
2023-04-29T06:01:57.521Z,25.00
2023-04-29T06:03:59.297Z,19.00
2023-04-29T06:06:01.232Z,20.25
2023-04-29T06:08:04.042Z,26.25
2023-04-29T06:10:07.019Z,21.25
2023-04-29T06:12:08.708Z,24.50
2023-04-29T06:14:10.478Z,18.50
2023-04-29T06:16:12.569Z,9.25
2023-04-29T06:18:15.535Z,23.50
2023-04-29T06:20:18.237Z,29.50
2023-04-29T06:22:19.972Z,24.75
2023-04-29T06:24:21.635Z,26.00
2023-04-29T06:26:23.305Z,21.00
2023-04-29T06:28:24.948Z,25.00
2023-04-29T06:30:26.752Z,24.25
2023-04-29T06:32:28.400Z,24.75
2023-04-29T06:34:31.447Z,23.75
2023-04-29T06:36:33.002Z,29.75
2023-04-29T06:38:34.654Z,23.75
2023-04-29T06:40:36.227Z,25.00
2023-04-29T06:42:37.841Z,24.75
2023-04-29T06:44:39.539Z,26.75
2023-04-29T06:46:41.116Z,19.50
2023-04-29T06:48:42.928Z,19.25
2023-04-29T06:50:51.337Z,23.50
2023-04-29T06:52:52.929Z,16.25
2023-04-29T06:54:54.668Z,23.75
2023-04-29T06:56:56.191Z,13.75
2023-04-29T06:58:57.865Z,23.50
2023-04-29T07:00:59.519Z,23.25
2023-04-29T07:03:01.544Z,21.00
2023-04-29T07:05:03.227Z,23.50
2023-04-29T07:07:06.134Z,20.75
2023-04-29T07:09:07.752Z,19.50
2023-04-29T07:11:09.297Z,21.00
2023-04-29T07:13:10.803Z,14.50
2023-04-29T07:15:12.547Z,21.00
2023-04-29T07:17:14.320Z,19.75
2023-04-29T07:19:15.962Z,21.50
2023-04-29T07:21:17.570Z,21.25
2023-04-29T07:23:20.685Z,20.00
2023-04-29T07:25:22.349Z,20.75
2023-04-29T07:27:23.909Z,21.75
2023-04-29T07:29:25.537Z,28.75
2023-04-29T07:31:27.347Z,20.75
2023-04-29T07:33:28.932Z,20.50
2023-04-29T07:35:30.490Z,19.75
2023-04-29T07:37:32.070Z,25.25
2023-04-29T07:39:35.038Z,19.75
2023-04-29T07:41:36.651Z,23.00
2023-04-29T07:43:39.239Z,21.75
2023-04-29T07:45:42.626Z,19.00
2023-04-29T07:47:44.527Z,23.00
2023-04-29T07:49:46.103Z,20.00
2023-04-29T07:51:47.675Z,20.50
2023-04-29T07:53:49.227Z,19.75
2023-04-29T07:55:52.146Z,19.00
2023-04-29T07:57:53.779Z,21.50
2023-04-29T07:59:55.484Z,22.75
2023-04-29T08:01:57.064Z,29.00
2023-04-29T08:03:58.885Z,21.50
2023-04-29T08:06:02.176Z,22.25
2023-04-29T08:08:03.874Z,19.75
2023-04-29T08:10:06.739Z,19.75
2023-04-29T08:12:09.945Z,20.75
2023-04-29T08:14:11.696Z,22.25
2023-04-29T08:16:13.756Z,23.25
2023-04-29T08:18:15.440Z,22.75
2023-04-29T08:20:17.056Z,22.00
2023-04-29T08:22:19.232Z,24.50
2023-04-29T08:24:20.834Z,22.00
2023-04-29T08:26:23.961Z,22.75
2023-04-29T08:28:27.124Z,19.25
2023-04-29T08:30:28.782Z,23.25
2023-04-29T08:32:30.379Z,21.00
2023-04-29T08:34:32.135Z,20.75
2023-04-29T08:36:33.845Z,23.00
2023-04-29T08:38:35.384Z,16.25
2023-04-29T08:40:43.136Z,19.75
2023-04-29T08:42:47.392Z,19.50
2023-04-29T08:44:53.329Z,21.50
2023-04-29T08:46:56.016Z,18.00
2023-04-29T08:48:58.591Z,17.25
2023-04-29T08:51:00.384Z,21.25
2023-04-29T08:53:02.010Z,22.75
2023-04-29T08:55:03.972Z,16.50
2023-04-29T08:57:06.358Z,17.75
2023-04-29T08:59:10.600Z,20.25
2023-04-29T09:01:14.241Z,17.50
2023-04-29T09:03:22.192Z,22.25
2023-04-29T09:05:25.056Z,18.25
2023-04-29T09:07:28.049Z,17.25
2023-04-29T09:09:30.663Z,26.00
2023-04-29T09:11:32.538Z,20.00
2023-04-29T09:13:34.301Z,21.00
2023-04-29T09:15:36.763Z,16.00
2023-04-29T09:17:40.851Z,19.75
2023-04-29T09:19:44.853Z,17.25
2023-04-29T09:21:54.437Z,21.50
2023-04-29T09:23:57.702Z,19.50
2023-04-29T09:25:59.318Z,20.25
2023-04-29T09:28:15.217Z,20.50
2023-04-29T09:30:17.027Z,17.25
2023-04-29T09:32:19.316Z,15.00
2023-04-29T09:34:32.792Z,20.50
2023-04-29T09:36:42.411Z,18.25
2023-04-29T09:38:53.919Z,21.00
2023-04-29T09:40:59.439Z,21.50
2023-04-29T09:43:01.775Z,18.00
2023-04-29T09:45:03.671Z,17.75
2023-04-29T09:47:07.005Z,16.50
2023-04-29T09:49:23.375Z,14.25
2023-04-29T09:51:26.379Z,16.75
2023-04-29T09:53:29.320Z,17.00
2023-04-29T09:55:31.003Z,16.25
2023-04-29T09:57:41.523Z,18.00
2023-04-29T09:59:44.432Z,17.00
2023-04-29T10:01:48.829Z,17.75
2023-04-29T10:03:54.414Z,18.75
2023-04-29T10:05:57.272Z,20.00
2023-04-29T10:08:01.378Z,17.75
2023-04-29T10:10:06.225Z,17.00
2023-04-29T10:12:08.296Z,13.25
2023-04-29T10:14:13.395Z,15.75
2023-04-29T10:16:27.796Z,20.00
2023-04-29T10:18:36.267Z,15.50
2023-04-29T10:20:41.836Z,14.00
2023-04-29T10:22:46.724Z,15.25
2023-04-29T10:24:54.489Z,14.75
2023-04-29T10:26:57.298Z,11.50
2023-04-29T10:29:00.345Z,11.80
2023-04-29T10:31:02.988Z,12.00
2023-04-29T10:33:06.710Z,12.20
2023-04-29T10:35:10.517Z,12.20
2023-04-29T10:37:13.496Z,9.60
2023-04-29T10:39:26.945Z,12.40
2023-04-29T10:41:34.703Z,14.20
2023-04-29T10:43:36.676Z,11.00
2023-04-29T10:45:39.005Z,13.80
2023-04-29T10:47:40.855Z,11.00
2023-04-29T10:50:03.691Z,8.60
2023-04-29T10:52:06.148Z,9.60
2023-04-29T10:54:09.603Z,11.00
2023-04-29T10:56:11.356Z,12.80
2023-04-29T10:58:36.172Z,9.40
2023-04-29T11:00:38.262Z,9.40
2023-04-29T11:02:40.285Z,9.60
2023-04-29T11:05:09.373Z,10.60
2023-04-29T11:07:27.171Z,9.40
2023-04-29T11:09:30.104Z,8.80
2023-04-29T11:11:45.758Z,7.80
2023-04-29T11:13:48.727Z,10.00
2023-04-29T11:15:51.704Z,11.80
2023-04-29T11:17:53.351Z,7.40
2023-04-29T11:19:55.525Z,7.20
2023-04-29T11:22:13.262Z,11.20
2023-04-29T11:24:15.484Z,8.50
2023-04-29T11:26:19.718Z,7.00
2023-04-29T11:28:22.526Z,7.50
2023-04-29T11:30:28.889Z,6.75
2023-04-29T11:32:32.201Z,5.75
2023-04-29T11:34:34.093Z,6.75
2023-04-29T11:36:35.730Z,5.75
2023-04-29T11:38:40.290Z,8.50
2023-04-29T11:40:42.451Z,6.50
2023-04-29T11:42:45.556Z,6.25
2023-04-29T11:44:47.255Z,7.00
2023-04-29T11:46:50.532Z,6.00
2023-04-29T11:48:52.419Z,6.00
2023-04-29T11:50:59.286Z,5.75
2023-04-29T11:53:00.944Z,6.75
2023-04-29T11:55:03.425Z,7.25
2023-04-29T11:57:05.132Z,5.00
2023-04-29T11:59:07.042Z,4.25
2023-04-29T12:01:08.759Z,6.50
2023-04-29T12:03:15.995Z,4.75
2023-04-29T12:05:18.096Z,5.25
2023-04-29T12:07:20.159Z,3.75
2023-04-29T12:09:21.732Z,4.00
2023-04-29T12:11:23.884Z,3.75
2023-04-29T12:13:27.890Z,4.25
2023-04-29T12:15:30.254Z,3.50
2023-04-29T12:17:32.109Z,6.25
2023-04-29T12:19:35.494Z,7.00
2023-04-29T12:21:38.116Z,5.00
2023-04-29T12:23:41.451Z,6.00
2023-04-29T12:25:49.218Z,8.50
2023-04-29T12:27:51.174Z,8.00
2023-04-29T12:29:53.186Z,4.00
2023-04-29T12:31:56.693Z,5.00
2023-04-29T12:33:58.313Z,4.50
2023-04-29T12:36:02.242Z,6.25
2023-04-29T12:38:04.041Z,5.75
2023-04-29T12:40:07.470Z,6.50
2023-04-29T12:42:15.239Z,4.50
2023-04-29T12:44:17.233Z,6.00
2023-04-29T12:46:21.519Z,4.00
2023-04-29T12:48:32.725Z,3.75
2023-04-29T12:50:37.294Z,5.50
2023-04-29T12:52:40.250Z,3.75
2023-04-29T12:54:43.091Z,5.25
2023-04-29T12:56:44.792Z,6.00
2023-04-29T12:58:46.385Z,5.75
2023-04-29T13:00:48.122Z,4.50
2023-04-29T13:02:49.766Z,5.25
2023-04-29T13:04:51.897Z,3.00
2023-04-29T13:06:54.081Z,5.00
2023-04-29T13:08:57.156Z,3.00
2023-04-29T13:11:01.188Z,2.25
2023-04-29T13:13:03.330Z,4.00
2023-04-29T13:15:06.252Z,4.50
2023-04-29T13:17:08.017Z,3.75
2023-04-29T13:19:28.150Z,4.75
2023-04-29T13:21:31.379Z,5.25
2023-04-29T13:23:32.956Z,6.75
2023-04-29T13:25:36.354Z,2.50
2023-04-29T13:27:38.390Z,4.00
2023-04-29T13:29:40.284Z,3.25
2023-04-29T13:31:42.081Z,5.00
2023-04-29T13:33:43.988Z,5.75
2023-04-29T13:35:46.166Z,3.00
2023-04-29T13:37:47.988Z,3.25
2023-04-29T13:39:56.881Z,3.75
2023-04-29T13:42:00.729Z,2.00
2023-04-29T13:44:03.433Z,3.00
2023-04-29T13:46:07.717Z,3.75
2023-04-29T13:48:26.063Z,3.75
2023-04-29T13:59:36.182Z,3.25
2023-04-29T14:01:54.671Z,4.00
2023-04-29T14:03:35.892Z,2.75
2023-04-29T14:05:38.017Z,3.75
2023-04-29T14:07:40.023Z,6.25
2023-04-29T14:09:41.630Z,3.00
2023-04-29T14:12:02.882Z,2.00
2023-04-29T14:14:05.991Z,4.50
2023-04-29T14:16:08.779Z,4.50
2023-04-29T14:18:10.541Z,3.00
2023-04-29T14:20:13.528Z,3.75
2023-04-29T14:22:15.136Z,3.25
2023-04-29T14:24:16.750Z,4.00
2023-04-29T14:28:23.754Z,2.25
2023-04-29T14:30:26.977Z,4.00
2023-04-29T14:32:28.639Z,6.50
2023-04-29T14:34:30.264Z,4.75
2023-04-29T14:36:32.783Z,5.00
2023-04-29T14:38:34.571Z,3.00
2023-04-29T14:40:36.186Z,3.00
2023-04-29T14:42:39.330Z,5.00
2023-04-29T14:44:41.105Z,2.00
2023-04-29T14:46:44.273Z,9.25
2023-04-29T14:48:46.179Z,0.75
2023-04-29T14:50:48.015Z,3.50
2023-04-29T14:52:49.883Z,2.00
2023-04-29T14:54:51.596Z,4.25
2023-04-29T14:56:53.299Z,3.00
2023-04-29T14:58:55.772Z,6.00
2023-04-29T15:00:57.569Z,4.50
2023-04-29T15:03:02.187Z,4.00
2023-04-29T15:05:06.230Z,3.25
2023-04-29T15:07:07.818Z,5.00
2023-04-29T15:09:09.654Z,6.00
2023-04-29T15:11:11.639Z,6.75
2023-04-29T15:13:13.406Z,7.00
2023-04-29T15:15:15.271Z,3.75
2023-04-29T15:17:17.165Z,4.50
2023-04-29T15:19:20.477Z,4.50
2023-04-29T15:21:22.077Z,5.75
2023-04-29T15:23:26.010Z,6.60
2023-04-29T15:25:27.812Z,7.20
2023-04-29T15:27:29.615Z,7.60
2023-04-29T15:29:31.328Z,9.20
2023-04-29T15:31:33.206Z,4.25
2023-04-29T15:33:34.739Z,6.20
2023-04-29T15:35:37.833Z,7.20
2023-04-29T15:37:39.362Z,6.00
2023-04-29T15:39:41.143Z,4.60
2023-04-29T15:41:42.707Z,5.00
2023-04-29T15:43:44.341Z,6.00
2023-04-29T15:45:45.964Z,5.40
2023-04-29T15:47:47.679Z,6.00
2023-04-29T15:49:49.458Z,6.40
2023-04-29T15:51:52.402Z,3.80
2023-04-29T15:53:54.356Z,4.40
2023-04-29T15:55:56.033Z,7.80
2023-04-29T15:57:57.572Z,6.20
2023-04-29T15:59:59.209Z,5.40
2023-04-29T16:02:01.077Z,5.20
2023-04-29T16:04:03.085Z,6.20
2023-04-29T16:06:05.080Z,6.20
2023-04-29T16:08:08.441Z,4.00
2023-04-29T16:10:10.681Z,8.00
2023-04-29T16:12:12.804Z,7.60
2023-04-29T16:14:14.355Z,7.80
2023-04-29T16:16:15.993Z,9.60
2023-04-29T16:18:17.617Z,5.60
2023-04-29T16:20:19.514Z,8.20
2023-04-29T16:22:21.059Z,8.40
2023-04-29T16:24:24.208Z,9.40
2023-04-29T16:26:26.318Z,6.80
2023-04-29T16:28:28.146Z,5.80
2023-04-29T16:30:30.030Z,7.60
2023-04-29T16:32:31.891Z,5.20
2023-04-29T16:34:33.604Z,3.40
2023-04-29T16:36:35.831Z,4.00
2023-04-29T16:38:37.732Z,3.60
2023-04-29T16:40:40.776Z,4.00
2023-04-29T16:42:42.325Z,9.40
2023-04-29T16:44:44.012Z,3.00
2023-04-29T16:46:45.767Z,5.00
2023-04-29T16:48:47.862Z,4.20
2023-04-29T16:50:50.589Z,2.60
2023-04-29T16:52:52.391Z,2.40
2023-04-29T16:54:53.951Z,3.40
2023-04-29T16:56:57.038Z,3.00
2023-04-29T16:58:58.873Z,4.00
2023-04-29T17:01:00.766Z,4.20
2023-04-29T17:03:02.535Z,4.60
2023-04-29T17:05:04.545Z,9.00
2023-04-29T17:07:06.227Z,3.60
2023-04-29T17:09:08.193Z,3.00
2023-04-29T17:11:09.742Z,3.60
2023-04-29T17:13:12.840Z,6.00
2023-04-29T17:15:14.554Z,3.80
2023-04-29T17:17:16.345Z,4.00
2023-04-29T17:19:17.974Z,3.60
2023-04-29T17:21:19.596Z,1.40
2023-04-29T17:23:21.203Z,3.00
2023-04-29T17:25:23.263Z,2.80
2023-04-29T17:27:25.182Z,2.00
2023-04-29T17:29:28.363Z,3.20
2023-04-29T17:31:30.246Z,3.00
2023-04-29T17:33:31.984Z,3.00
2023-04-29T17:35:34.507Z,2.20
2023-04-29T17:37:36.495Z,1.60
2023-04-29T17:39:38.161Z,3.60
2023-04-29T17:41:39.828Z,0.00
2023-04-29T17:43:41.381Z,1.00
2023-04-29T17:45:44.816Z,2.60
2023-04-29T17:47:46.424Z,2.80
2023-04-29T17:49:48.146Z,2.00
2023-04-29T17:51:49.784Z,2.00
2023-04-29T17:53:51.690Z,1.60
2023-04-29T17:55:53.646Z,2.00
2023-04-29T17:57:55.666Z,1.80
2023-04-29T17:59:57.779Z,1.80
2023-04-29T18:02:01.022Z,4.60
2023-04-29T18:04:02.964Z,8.60
2023-04-29T18:06:05.245Z,3.00
2023-04-29T18:08:06.922Z,3.00
2023-04-29T18:10:09.259Z,3.60
2023-04-29T18:12:10.859Z,2.20
2023-04-29T18:14:12.461Z,2.00
2023-04-29T18:16:14.074Z,1.60
2023-04-29T18:18:17.227Z,2.00
2023-04-29T18:20:19.057Z,1.25
2023-04-29T18:22:20.628Z,2.00
2023-04-29T18:24:22.221Z,4.00
2023-04-29T18:26:24.042Z,3.00
2023-04-29T18:28:28.492Z,1.75
2023-04-29T18:30:30.647Z,2.00
2023-04-29T18:32:32.160Z,1.50
2023-04-29T18:34:35.176Z,2.00
2023-04-29T18:36:37.189Z,2.00
2023-04-29T18:38:38.992Z,3.25
2023-04-29T18:40:40.748Z,2.00
2023-04-29T18:42:42.428Z,2.75
2023-04-29T18:44:44.635Z,3.00
2023-04-29T18:46:46.558Z,1.00
2023-04-29T18:48:48.622Z,2.00
2023-04-29T18:50:53.468Z,3.50
2023-04-29T18:52:55.075Z,3.25
2023-04-29T18:54:56.944Z,3.00
2023-04-29T18:56:58.510Z,3.00
2023-04-29T18:59:00.140Z,3.50
2023-04-29T19:01:02.413Z,1.75
2023-04-29T19:03:04.934Z,2.25
2023-04-29T19:05:08.274Z,3.25
2023-04-29T19:07:11.329Z,1.00
2023-04-29T19:09:12.955Z,2.00
2023-04-29T19:11:14.766Z,1.75
2023-04-29T19:13:16.431Z,2.00
2023-04-29T19:15:18.286Z,2.00
2023-04-29T19:17:20.359Z,3.50
2023-04-29T19:19:22.245Z,2.00
2023-04-29T19:21:24.102Z,3.00
2023-04-29T19:23:29.993Z,1.00
2023-04-29T19:25:33.106Z,2.25
2023-04-29T19:27:35.104Z,1.00
2023-04-29T19:29:36.747Z,2.75
2023-04-29T19:31:38.612Z,2.50
2023-04-29T19:33:40.165Z,3.75
2023-04-29T19:35:41.693Z,5.50
2023-04-29T19:37:43.500Z,3.75
2023-04-29T19:39:46.686Z,2.75
2023-04-29T19:41:48.473Z,4.00
2023-04-29T19:43:49.990Z,3.75
2023-04-29T19:45:51.609Z,4.75
2023-04-29T19:47:53.259Z,4.75
2023-04-29T19:49:55.534Z,6.50
2023-04-29T19:51:57.322Z,4.50
2023-04-29T19:53:59.003Z,4.00
2023-04-29T19:56:02.053Z,2.00
2023-04-29T19:58:03.624Z,2.00
2023-04-29T20:00:06.684Z,2.00
2023-04-29T20:02:08.315Z,3.00
2023-04-29T20:04:11.966Z,3.25
2023-04-29T20:06:16.293Z,1.00
2023-04-29T20:08:17.906Z,3.00
2023-04-29T20:10:19.924Z,2.00
2023-04-29T20:12:22.788Z,2.00
2023-04-29T20:14:24.652Z,2.00
2023-04-29T20:16:26.886Z,2.00
2023-04-29T20:18:28.726Z,3.00
2023-04-29T20:20:30.788Z,4.75
2023-04-29T20:22:32.454Z,2.25
2023-04-29T20:24:34.280Z,3.50
2023-04-29T20:26:35.856Z,2.00
2023-04-29T20:28:38.842Z,3.00
2023-04-29T20:30:40.760Z,2.00
2023-04-29T20:32:42.345Z,4.75
2023-04-29T20:34:44.697Z,1.50
2023-04-29T20:36:46.304Z,2.25
2023-04-29T20:38:47.935Z,2.50
2023-04-29T20:40:52.770Z,4.00
2023-04-29T20:42:54.476Z,5.25
2023-04-29T20:44:59.010Z,5.75
2023-04-29T20:47:00.841Z,6.50
2023-04-29T20:49:04.857Z,7.50
2023-04-29T20:51:06.701Z,5.00
2023-04-29T20:53:08.565Z,10.75
2023-04-29T20:55:10.626Z,11.00
2023-04-29T20:57:12.428Z,10.75
2023-04-29T20:59:14.256Z,8.25
2023-04-29T21:01:17.648Z,6.00
2023-04-29T21:03:19.289Z,5.75
2023-04-29T21:05:23.495Z,4.75
2023-04-29T21:07:25.068Z,5.25
2023-04-29T21:09:26.737Z,2.50
2023-04-29T21:11:30.506Z,4.50
2023-04-29T21:13:32.178Z,4.25
2023-04-29T21:15:34.060Z,2.00
2023-04-29T21:17:37.318Z,3.50
2023-04-29T21:19:38.959Z,3.00
2023-04-29T21:21:40.578Z,2.00
2023-04-29T21:23:42.236Z,4.50
2023-04-29T21:25:43.824Z,1.00
2023-04-29T21:27:45.430Z,2.00
2023-04-29T21:29:46.983Z,4.25
2023-04-29T21:31:48.673Z,6.25
2023-04-29T21:33:51.847Z,3.75
2023-04-29T21:35:53.470Z,4.50
2023-04-29T21:37:55.645Z,1.75
2023-04-29T21:39:57.340Z,2.00
2023-04-29T21:41:59.274Z,2.75
2023-04-29T21:44:02.458Z,4.00
2023-04-29T21:46:07.067Z,2.00
2023-04-29T21:48:14.603Z,1.75
2023-04-29T21:50:17.725Z,1.25
2023-04-29T21:52:19.904Z,2.75
2023-04-29T21:54:22.003Z,2.00
2023-04-29T21:56:23.822Z,1.50
2023-04-29T21:58:25.869Z,2.00
2023-04-29T22:00:27.462Z,2.25
2023-04-29T22:02:29.305Z,2.25
2023-04-29T22:04:31.406Z,2.25
2023-04-29T22:06:34.637Z,3.50
2023-04-29T22:08:36.667Z,6.25
2023-04-29T22:10:39.158Z,6.00
2023-04-29T22:12:41.143Z,3.50
2023-04-29T22:14:46.594Z,3.00
2023-04-29T22:16:48.735Z,4.00
2023-04-29T22:18:50.775Z,1.00
2023-04-29T22:20:52.652Z,1.00
2023-04-29T22:22:56.004Z,2.00
2023-04-29T22:24:57.660Z,1.00
2023-04-29T22:26:59.713Z,3.50
2023-04-29T22:29:02.062Z,1.00
2023-04-29T22:31:03.994Z,1.75
2023-04-29T22:33:06.182Z,2.00
2023-04-29T22:35:08.246Z,2.00
2023-04-29T22:37:09.937Z,0.00
2023-04-29T22:39:12.893Z,2.25
2023-04-29T22:41:14.729Z,1.00
2023-04-29T22:43:16.673Z,1.50
2023-04-29T22:45:18.321Z,2.00
2023-04-29T22:47:20.452Z,4.50
2023-04-29T22:49:22.137Z,6.00
2023-04-29T22:51:23.659Z,9.00
2023-04-29T22:53:25.701Z,9.00
2023-04-29T22:55:28.702Z,7.25
2023-04-29T22:57:30.340Z,4.50
2023-04-29T22:59:32.198Z,4.00
2023-04-29T23:01:33.796Z,2.00
2023-04-29T23:03:35.396Z,2.50
2023-04-29T23:05:37.051Z,6.00
2023-04-29T23:07:38.633Z,2.00
2023-04-29T23:09:40.150Z,2.00
2023-04-29T23:11:43.273Z,1.00
2023-04-29T23:13:45.106Z,2.00
2023-04-29T23:15:46.774Z,2.50
2023-04-29T23:17:48.505Z,2.75
2023-04-29T23:19:50.142Z,3.75
2023-04-29T23:21:51.654Z,4.00
2023-04-29T23:23:53.344Z,5.25
2023-04-29T23:25:55.026Z,3.50
2023-04-29T23:27:58.336Z,4.00
2023-04-29T23:29:59.875Z,5.25
2023-04-29T23:32:01.999Z,7.25
2023-04-29T23:34:03.649Z,3.50
2023-04-29T23:36:06.190Z,2.50
2023-04-29T23:38:07.821Z,0.00
2023-04-29T23:40:10.158Z,1.00
2023-04-29T23:42:11.798Z,1.50
2023-04-29T23:44:15.341Z,1.00
2023-04-29T23:46:17.335Z,1.00
2023-04-29T23:48:18.850Z,2.00
2023-04-29T23:50:20.698Z,1.75
2023-04-29T23:52:22.466Z,2.00
2023-04-29T23:54:24.328Z,0.50
2023-04-29T23:56:26.107Z,1.00
2023-04-29T23:58:27.756Z,2.25
